Terminal Aerodrome Forecast
Issued by NWS

Home | Current Version | Previous Version | Text Only | Print | Product List | Glossary On
Versions: 1 2 3 4 5 6 7 8 9 10 11 12 13 14 15
000
FTUS45 KGGW 240500
TAFSDY
TAF
KSDY 240520Z 2406/2506 30007KT P6SM BKN250
     FM241200 VRB03KT P6SM BKN120
     FM241800 29008KT P6SM BKN100
     FM242100 28012KT P6SM BKN060
      AMD LTD TO CLD VIS AND WIND=

USA.gov is the U.S. government's official web portal to all federal, state and local government web resources and services.